Terminal Aerodrome Forecast
Issued by NWS Bismarck, ND

Home | Current Version | Previous Version | Graphics & Text | Print | Product List | Glossary On
Versions: 1 2 3 4 5 6 7 8 9 10 11 12 13 14 15 16 17 18
000
FTUS43 KBIS 241734
TAFISN
TAF
KISN 241734Z 2418/2518 09006KT P6SM SCT035 SCT060
     FM250000 07006KT P6SM BKN035 OVC060
     FM250900 03006KT P6SM SCT025 OVC035=

USA.gov is the U.S. government's official web portal to all federal, state and local government web resources and services.